Time;durP1;ratioP1;P1;durP2;ratioP2;P2;SDS_P1;SDS_P2;PMS_P1;PMS_P2;Temp;Humidity;BMP_temperature;BMP_pressure;BME280_temperature;BME280_humidity;BME280_pressure;Samples;Min_cycle;Max_cycle;Signal;HPM_P1;HPM_P2
2023/09/07 00:00:40;;;;;;;8.45;5.05;;;;;;;13.28;100.00;99015.00;3164719;23;20022;-88
2023/09/07 00:02:15;;;;;;;6.50;4.45;;;;;;;13.34;100.00;99015.69;3162823;23;20018;-87
2023/09/07 00:03:31;;;;;;;7.53;4.40;;;;;;;13.32;100.00;99017.53;3146973;23;20026;-88
2023/09/07 00:04:46;;;;;;;7.90;4.80;;;;;;;13.25;100.00;99017.72;3154581;23;20403;-88
2023/09/07 00:06:02;;;;;;;9.82;5.05;;;;;;;13.32;100.00;99021.03;3162656;23;20028;-88
2023/09/07 00:07:17;;;;;;;8.30;5.22;;;;;;;13.37;100.00;99013.00;3162425;23;20337;-87
2023/09/07 00:08:33;;;;;;;7.53;5.10;;;;;;;13.42;100.00;99017.22;3163232;23;20079;-87
2023/09/07 00:09:48;;;;;;;8.43;5.65;;;;;;;13.43;100.00;99012.81;3163500;23;20021;-88
2023/09/07 00:11:06;;;;;;;8.45;5.18;;;;;;;13.45;100.00;99020.69;3164261;23;20066;-88
2023/09/07 00:12:21;;;;;;;7.10;5.25;;;;;;;13.40;100.00;99015.53;3163076;23;20340;-88
2023/09/07 00:13:37;;;;;;;8.20;5.35;;;;;;;13.32;100.00;99014.88;3164164;23;20186;-87
2023/09/07 00:14:56;;;;;;;7.35;5.53;;;;;;;13.42;100.00;99014.59;3163138;23;20026;-87
2023/09/07 00:16:12;;;;;;;11.38;5.45;;;;;;;13.46;100.00;99018.00;3162457;23;20118;-88
2023/09/07 00:17:28;;;;;;;9.77;5.53;;;;;;;13.52;100.00;99007.31;3164516;23;20018;-88
2023/09/07 00:18:43;;;;;;;7.07;5.50;;;;;;;13.52;100.00;99014.31;3146764;23;20022;-88
2023/09/07 00:19:59;;;;;;;8.30;5.43;;;;;;;13.53;100.00;99006.38;3139362;23;20349;-88
2023/09/07 00:21:14;;;;;;;7.05;5.30;;;;;;;13.55;100.00;99009.81;3153394;23;20459;-87
2023/09/07 00:22:31;;;;;;;9.85;5.32;;;;;;;13.53;100.00;99016.91;3164799;23;20022;-87
2023/09/07 00:23:46;;;;;;;9.18;5.25;;;;;;;13.47;100.00;99018.88;3147956;23;20530;-88
2023/09/07 00:25:03;;;;;;;7.15;5.50;;;;;;;13.47;100.00;99010.97;3139611;23;20050;-87
2023/09/07 00:26:19;;;;;;;7.50;4.85;;;;;;;13.27;100.00;99015.06;3156265;23;20018;-87
2023/09/07 00:27:34;;;;;;;10.68;5.13;;;;;;;13.27;100.00;99008.00;3163451;23;20383;-88
2023/09/07 00:28:50;;;;;;;13.93;7.00;;;;;;;13.14;100.00;99014.53;3165183;23;20021;-87
2023/09/07 00:30:08;;;;;;;8.50;5.47;;;;;;;13.12;100.00;99009.31;3147698;23;20022;-87
2023/09/07 00:31:24;;;;;;;9.10;5.18;;;;;;;13.10;100.00;99008.50;3139978;23;20030;-87
2023/09/07 00:32:40;;;;;;;6.50;4.63;;;;;;;13.00;100.00;99007.06;3156089;23;20033;-87
2023/09/07 00:33:55;;;;;;;6.88;4.53;;;;;;;13.01;100.00;99008.78;3164542;23;20347;-87
2023/09/07 00:35:11;;;;;;;6.50;4.82;;;;;;;13.05;100.00;99014.78;3147636;23;20030;-87
2023/09/07 00:36:27;;;;;;;7.32;5.07;;;;;;;12.98;100.00;99016.72;3154166;23;20509;-87
2023/09/07 00:37:42;;;;;;;7.70;5.00;;;;;;;12.89;100.00;99011.75;3164898;23;20025;-87
2023/09/07 00:38:57;;;;;;;8.65;5.25;;;;;;;12.88;100.00;99012.66;3163412;23;20072;-87
2023/09/07 00:40:13;;;;;;;6.53;4.80;;;;;;;12.82;100.00;99011.06;3164712;23;20206;-87
2023/09/07 00:41:29;;;;;;;8.68;4.65;;;;;;;12.83;100.00;99011.00;3165793;23;20077;-88
2023/09/07 00:42:44;;;;;;;6.03;5.00;;;;;;;12.83;100.00;99011.00;3164571;23;20073;-87
2023/09/07 00:44:00;;;;;;;7.95;5.00;;;;;;;12.88;100.00;99012.66;3164118;23;20026;-88
2023/09/07 00:45:15;;;;;;;7.43;4.95;;;;;;;12.80;100.00;99018.16;3164269;23;20068;-87
2023/09/07 00:46:31;;;;;;;5.97;4.60;;;;;;;12.67;100.00;99012.34;3149073;23;20026;-87
2023/09/07 00:47:47;;;;;;;11.15;4.47;;;;;;;12.67;100.00;99020.22;3138716;23;20478;-87
2023/09/07 00:49:04;;;;;;;6.28;4.78;;;;;;;12.69;100.00;99016.66;3155035;23;20021;-87
2023/09/07 00:50:20;;;;;;;7.55;4.85;;;;;;;12.66;100.00;99006.25;3163760;23;20018;-87
2023/09/07 00:51:35;;;;;;;7.43;4.80;;;;;;;12.64;100.00;99022.94;3164318;23;20022;-87
2023/09/07 00:52:51;;;;;;;7.35;5.57;;;;;;;12.57;100.00;99017.88;3165738;23;20022;-87
2023/09/07 00:54:07;;;;;;;9.98;5.00;;;;;;;12.57;100.00;99017.88;3163898;23;20026;-87
2023/09/07 00:55:23;;;;;;;7.50;5.28;;;;;;;12.68;100.00;99014.06;3165511;23;20053;-87
2023/09/07 00:56:40;;;;;;;7.05;5.03;;;;;;;12.67;100.00;99017.59;3149751;23;20544;-87
2023/09/07 00:57:55;;;;;;;6.18;5.10;;;;;;;12.60;100.00;99016.06;3156793;23;20026;-88
2023/09/07 00:59:12;;;;;;;7.63;5.18;;;;;;;12.64;100.00;99015.06;3163204;23;20450;-87
2023/09/07 01:00:29;;;;;;;9.45;4.80;;;;;;;12.64;100.00;99015.06;3164207;23;20049;-87
2023/09/07 01:01:44;;;;;;;8.15;5.22;;;;;;;12.55;100.00;99013.56;3165258;23;20458;-88
2023/09/07 01:03:01;;;;;;;10.57;5.57;;;;;;;12.57;100.00;99017.00;3164115;23;20021;-87
2023/09/07 01:04:16;;;;;;;8.38;5.80;;;;;;;12.61;100.00;99013.38;3165244;23;20022;-87
2023/09/07 01:05:46;;;;;;;9.95;4.90;;;;;;;12.65;100.00;99017.66;3147647;23;20403;-88
2023/09/07 01:07:15;;;;;;;6.78;4.65;;;;;;;12.71;100.00;99017.47;3141176;23;20034;-87
2023/09/07 01:08:44;;;;;;;8.90;5.28;;;;;;;12.78;100.00;99018.16;3156449;23;20482;-87
2023/09/07 01:10:02;;;;;;;7.38;4.70;;;;;;;12.78;100.00;99012.91;3163587;23;20052;-87
2023/09/07 01:11:22;;;;;;;6.55;4.78;;;;;;;12.84;100.00;99017.97;3164132;23;20026;-87
2023/09/07 01:12:38;;;;;;;8.82;4.90;;;;;;;12.84;100.00;99017.16;3148715;23;20027;-86
2023/09/07 01:13:53;;;;;;;6.53;4.75;;;;;;;12.83;100.00;99018.91;3153945;23;20084;-88
2023/09/07 01:15:10;;;;;;;6.53;4.97;;;;;;;12.74;100.00;99015.66;3164484;23;20048;-88
2023/09/07 01:16:25;;;;;;;6.90;4.93;;;;;;;12.67;100.00;99014.97;3163171;23;20053;-87
2023/09/07 01:17:42;;;;;;;6.32;4.93;;;;;;;12.63;100.00;99014.19;3163912;23;20029;-87
2023/09/07 01:18:57;;;;;;;6.97;4.90;;;;;;;12.50;100.00;99016.28;3165127;23;20120;-87
2023/09/07 01:20:16;;;;;;;5.97;4.70;;;;;;;12.46;100.00;99017.28;3163644;23;20022;-88
2023/09/07 01:21:39;;;;;;;6.60;5.05;;;;;;;12.55;100.00;99022.28;3164581;23;20054;-88
2023/09/07 01:22:54;;;;;;;6.38;4.68;;;;;;;12.55;100.00;99022.28;3165136;23;20021;-87
2023/09/07 01:24:12;;;;;;;6.13;4.55;;;;;;;12.54;100.00;99025.81;3163304;23;20030;-87
2023/09/07 01:25:28;;;;;;;6.70;4.85;;;;;;;12.45;100.00;99019.94;3164465;23;20022;-88
2023/09/07 01:26:43;;;;;;;5.30;4.35;;;;;;;12.35;100.00;99016.69;3163358;23;20028;-89
2023/09/07 01:27:59;;;;;;;6.65;5.35;;;;;;;12.43;100.00;99017.34;3147930;23;20355;-87
2023/09/07 01:29:16;;;;;;;6.50;4.78;;;;;;;12.42;100.00;99023.50;3154971;23;20064;-88
2023/09/07 01:30:36;;;;;;;6.95;4.90;;;;;;;12.26;100.00;99013.41;3163183;23;20053;-88
2023/09/07 01:31:52;;;;;;;6.50;4.60;;;;;;;12.27;100.00;99017.75;3164626;23;20033;-89
2023/09/07 01:33:08;;;;;;;6.22;4.60;;;;;;;12.14;100.00;99017.22;3146682;23;20030;-88
2023/09/07 01:34:24;;;;;;;6.25;4.78;;;;;;;12.28;100.00;99014.22;3154692;23;20033;-87
2023/09/07 01:35:41;;;;;;;6.18;4.80;;;;;;;12.19;100.00;99019.72;3148978;23;20022;-87
2023/09/07 01:36:56;;;;;;;8.48;4.90;;;;;;;12.13;100.00;99017.22;3153615;23;20030;-87
2023/09/07 01:38:12;;;;;;;6.18;4.55;;;;;;;12.17;100.00;99012.78;3164716;23;20406;-87
2023/09/07 01:39:27;;;;;;;5.30;4.28;;;;;;;12.16;100.00;99014.56;3147574;23;20332;-88
2023/09/07 01:40:43;;;;;;;8.10;4.72;;;;;;;12.19;100.00;99011.84;3154933;23;20026;-87
2023/09/07 01:41:58;;;;;;;6.72;4.90;;;;;;;12.12;100.00;99011.16;3163228;23;20021;-87
2023/09/07 01:43:14;;;;;;;6.28;4.55;;;;;;;12.10;100.00;99014.69;3164046;23;20073;-87
2023/09/07 01:44:30;;;;;;;5.95;4.53;;;;;;;12.10;100.00;99015.56;3165299;23;20032;-87
2023/09/07 01:45:45;;;;;;;7.10;4.80;;;;;;;12.18;100.00;99017.13;3163621;23;20028;-87
2023/09/07 01:47:01;;;;;;;6.70;4.63;;;;;;;12.10;100.00;99023.44;3148758;23;20117;-89
2023/09/07 01:48:16;;;;;;;6.43;4.70;;;;;;;12.07;100.00;99020.88;3153813;23;20355;-88
2023/09/07 01:49:32;;;;;;;6.07;4.55;;;;;;;12.13;100.00;99022.50;3164802;23;20029;-88
2023/09/07 01:50:52;;;;;;;6.55;4.35;;;;;;;12.14;100.00;99019.84;3163659;23;20022;-88
2023/09/07 01:52:07;;;;;;;6.18;4.78;;;;;;;11.98;100.00;99019.31;3163993;23;20022;-87
2023/09/07 01:53:23;;;;;;;6.40;4.93;;;;;;;12.05;100.00;99016.59;3165023;23;20593;-87
2023/09/07 01:54:39;;;;;;;7.30;4.63;;;;;;;12.05;100.00;99022.69;3163677;23;20033;-88
2023/09/07 01:55:55;;;;;;;7.82;5.05;;;;;;;11.90;100.00;99016.03;3164847;23;20022;-87
2023/09/07 01:57:11;;;;;;;6.95;4.65;;;;;;;11.94;100.00;99016.78;3163238;23;20414;-87
2023/09/07 01:58:26;;;;;;;7.43;5.00;;;;;;;11.81;100.00;99009.25;3164397;23;20029;-88
2023/09/07 01:59:48;;;;;;;6.00;4.50;;;;;;;11.81;100.00;99011.00;3162263;23;20026;-87
2023/09/07 02:01:03;;;;;;;7.78;4.95;;;;;;;11.84;100.00;99011.78;3162763;23;20100;-87
2023/09/07 02:02:19;;;;;;;6.70;4.97;;;;;;;11.98;100.00;99019.31;3148357;23;20014;-88
2023/09/07 02:03:34;;;;;;;7.30;4.97;;;;;;;12.07;100.00;99020.03;3138362;23;20175;-87
2023/09/07 02:04:50;;;;;;;7.50;5.47;;;;;;;12.09;100.00;99018.22;3154433;23;20054;-87
2023/09/07 02:06:06;;;;;;;7.25;5.55;;;;;;;12.07;100.00;99013.00;3163276;23;20025;-88
2023/09/07 02:07:21;;;;;;;5.82;4.50;;;;;;;11.89;100.00;99013.44;3164010;23;20021;-88
2023/09/07 02:08:37;;;;;;;8.48;5.47;;;;;;;11.82;100.00;99016.22;3163285;23;20022;-88
2023/09/07 02:09:52;;;;;;;7.45;5.20;;;;;;;11.85;100.00;99013.50;3163837;23;20032;-87
2023/09/07 02:11:08;;;;;;;6.80;5.13;;;;;;;11.80;100.00;99017.13;3164926;23;20028;-88
2023/09/07 02:12:23;;;;;;;7.85;5.10;;;;;;;11.70;100.00;99012.09;3163300;23;20030;-87
2023/09/07 02:13:42;;;;;;;9.30;5.25;;;;;;;11.80;100.00;99014.53;3148205;23;20030;-87
2023/09/07 02:15:02;;;;;;;8.05;5.10;;;;;;;11.79;100.00;99021.50;3154568;23;20028;-87
2023/09/07 02:16:18;;;;;;;6.53;4.88;;;;;;;11.76;100.00;99016.34;3163455;23;20023;-87
2023/09/07 02:17:33;;;;;;;8.75;5.10;;;;;;;11.70;100.00;99017.34;3148938;23;20523;-88
2023/09/07 02:18:50;;;;;;;8.50;4.97;;;;;;;11.79;100.00;99012.78;3153765;23;20081;-88
2023/09/07 02:20:10;;;;;;;6.18;4.78;;;;;;;11.89;100.00;99016.94;3147959;23;20022;-88
2023/09/07 02:21:25;;;;;;;8.25;4.85;;;;;;;11.88;100.00;99020.47;3155946;23;20053;-87
2023/09/07 02:22:41;;;;;;;7.50;4.82;;;;;;;11.85;100.00;99021.38;3163230;23;20053;-89
2023/09/07 02:23:56;;;;;;;6.90;4.55;;;;;;;11.72;100.00;99020.78;3164668;23;20775;-88
2023/09/07 02:25:12;;;;;;;7.00;4.95;;;;;;;11.70;100.00;99014.72;3162974;23;20036;-88
2023/09/07 02:26:28;;;;;;;7.40;4.95;;;;;;;11.75;100.00;99019.03;3164540;23;20022;-88
2023/09/07 02:27:43;;;;;;;6.22;4.65;;;;;;;11.69;100.00;99010.38;3147265;23;20026;-88
2023/09/07 02:28:59;;;;;;;8.45;5.03;;;;;;;11.78;100.00;99017.16;3154328;23;20022;-88
2023/09/07 02:30:15;;;;;;;9.02;5.20;;;;;;;11.73;100.00;99021.66;3163334;23;20105;-87
2023/09/07 02:31:30;;;;;;;6.55;4.82;;;;;;;11.61;100.00;99016.69;3163500;23;20025;-88
2023/09/07 02:32:46;;;;;;;7.40;4.70;;;;;;;11.52;100.00;99021.25;3147540;23;20049;-88
2023/09/07 02:34:03;;;;;;;7.55;5.00;;;;;;;11.49;100.00;99015.22;3153672;23;20419;-87
2023/09/07 02:35:18;;;;;;;8.35;5.22;;;;;;;11.48;100.00;99018.75;3164586;23;20355;-88
2023/09/07 02:36:35;;;;;;;6.30;5.10;;;;;;;11.49;100.00;99017.84;3163356;23;20022;-87
2023/09/07 02:37:50;;;;;;;7.03;5.20;;;;;;;11.39;100.00;99025.06;3163026;23;20776;-89
2023/09/07 02:39:08;;;;;;;7.55;5.30;;;;;;;11.33;100.00;99017.31;3147045;23;20022;-87
2023/09/07 02:40:24;;;;;;;8.02;5.03;;;;;;;11.24;100.00;99023.63;3138415;23;20018;-88
2023/09/07 02:41:39;;;;;;;8.15;4.90;;;;;;;11.36;100.00;99023.38;3154776;23;20529;-88
2023/09/07 02:42:55;;;;;;;10.05;5.28;;;;;;;11.46;100.00;99028.41;3163227;23;20053;-87
2023/09/07 02:44:10;;;;;;;7.78;5.53;;;;;;;11.43;100.00;99030.19;3164444;23;20026;-88
2023/09/07 02:45:26;;;;;;;8.77;5.93;;;;;;;11.39;100.00;99025.06;3163260;23;20450;-87
2023/09/07 02:46:41;;;;;;;7.82;5.65;;;;;;;11.45;100.00;99027.53;3166043;23;20026;-88
2023/09/07 02:47:57;;;;;;;11.60;5.63;;;;;;;11.46;100.00;99026.63;3165792;23;20466;-88
2023/09/07 02:49:13;;;;;;;9.80;5.88;;;;;;;11.54;100.00;99021.22;3163545;23;20026;-88
2023/09/07 02:50:32;;;;;;;6.30;4.88;;;;;;;11.46;100.00;99028.41;3164529;23;20045;-88
2023/09/07 02:51:47;;;;;;;9.00;5.88;;;;;;;11.52;100.00;99028.28;3146882;23;20023;-87
2023/09/07 02:53:04;;;;;;;7.32;5.80;;;;;;;11.61;100.00;99025.44;3154056;23;20021;-88
2023/09/07 02:54:19;;;;;;;7.65;5.25;;;;;;;11.65;100.00;99024.47;3165214;23;20029;-88
2023/09/07 02:55:35;;;;;;;7.22;4.78;;;;;;;11.62;100.00;99024.56;3163666;23;20022;-88
2023/09/07 02:56:51;;;;;;;8.30;5.35;;;;;;;11.61;100.00;99017.59;3164553;23;20077;-88
2023/09/07 02:58:06;;;;;;;7.85;5.18;;;;;;;11.66;100.00;99023.56;3147090;23;20026;-87
2023/09/07 02:59:22;;;;;;;7.47;4.80;;;;;;;11.66;100.00;99022.69;3138006;23;20069;-87
2023/09/07 03:00:44;;;;;;;7.15;5.05;;;;;;;11.53;100.00;99030.88;3153003;23;20053;-87
2023/09/07 03:01:59;;;;;;;6.80;5.10;;;;;;;11.49;100.00;99017.84;3163447;23;20477;-88
2023/09/07 03:03:15;;;;;;;6.95;5.25;;;;;;;11.57;100.00;99027.28;3163124;23;20045;-88
2023/09/07 03:04:31;;;;;;;6.70;4.78;;;;;;;11.63;100.00;99026.28;3163303;23;20096;-88
2023/09/07 03:05:46;;;;;;;6.93;4.90;;;;;;;11.66;100.00;99035.81;3146707;23;20022;-89
2023/09/07 03:07:02;;;;;;;6.30;4.65;;;;;;;11.64;100.00;99029.75;3152548;23;20029;-88
2023/09/07 03:08:18;;;;;;;7.45;4.80;;;;;;;11.60;100.00;99031.59;3162990;23;20028;-87
2023/09/07 03:09:33;;;;;;;6.38;4.95;;;;;;;11.40;100.00;99025.00;3147025;23;20022;-87
2023/09/07 03:10:49;;;;;;;7.18;5.00;;;;;;;11.42;100.00;99027.63;3153844;23;20033;-88
2023/09/07 03:12:05;;;;;;;6.85;4.60;;;;;;;11.48;100.00;99034.50;3163004;23;20053;-88
2023/09/07 03:13:21;;;;;;;6.70;4.78;;;;;;;11.57;100.00;99029.00;3146999;23;20025;-88
2023/09/07 03:14:36;;;;;;;8.50;5.10;;;;;;;11.52;100.00;99036.97;3155098;23;20344;-87
2023/09/07 03:15:53;;;;;;;6.90;5.38;;;;;;;11.42;100.00;99032.88;3162590;23;20117;-87
2023/09/07 03:17:09;;;;;;;6.68;4.85;;;;;;;11.35;100.00;99037.38;3163805;23;20025;-88
2023/09/07 03:18:24;;;;;;;7.35;4.85;;;;;;;11.35;100.00;99037.38;3163041;23;20032;-88
2023/09/07 03:19:40;;;;;;;8.75;5.38;;;;;;;11.29;100.00;99038.38;3163702;23;20029;-87
2023/09/07 03:20:59;;;;;;;6.68;4.88;;;;;;;11.34;100.00;99037.41;3164626;23;20369;-87
2023/09/07 03:22:15;;;;;;;8.65;5.05;;;;;;;11.36;100.00;99033.84;3147380;23;20439;-88
2023/09/07 03:23:32;;;;;;;7.20;5.60;;;;;;;11.26;100.00;99040.19;3154833;23;20097;-87
2023/09/07 03:24:50;;;;;;;8.85;5.43;;;;;;;11.19;100.00;99030.75;3165173;23;20017;-87
2023/09/07 03:26:05;;;;;;;8.88;5.88;;;;;;;11.23;100.00;99032.38;3163700;23;20073;-88
2023/09/07 03:27:21;;;;;;;9.02;5.60;;;;;;;11.24;100.00;99036.72;3164450;23;20077;-88
2023/09/07 03:28:36;;;;;;;9.38;5.07;;;;;;;11.10;100.00;99030.03;3163233;23;20022;-88
2023/09/07 03:29:52;;;;;;;6.55;5.22;;;;;;;11.06;100.00;99040.59;3164170;23;20029;-88
2023/09/07 03:31:07;;;;;;;9.10;5.80;;;;;;;10.94;100.00;99033.84;3162652;23;20018;-87
2023/09/07 03:32:23;;;;;;;9.13;5.70;;;;;;;10.99;100.00;99040.72;3163956;23;20282;-88
2023/09/07 03:33:39;;;;;;;7.88;5.47;;;;;;;11.00;100.00;99037.22;3162553;23;20032;-88
2023/09/07 03:34:54;;;;;;;6.85;5.30;;;;;;;11.02;100.00;99037.16;3147160;23;20026;-87
2023/09/07 03:36:13;;;;;;;7.05;5.30;;;;;;;11.05;100.00;99034.50;3153180;23;20022;-88
2023/09/07 03:37:29;;;;;;;6.57;4.88;;;;;;;11.04;100.00;99037.16;3163194;23;20026;-87
2023/09/07 03:38:45;;;;;;;7.88;5.47;;;;;;;11.11;100.00;99044.84;3164354;23;20393;-89
2023/09/07 03:40:01;;;;;;;8.13;5.22;;;;;;;11.09;100.00;99041.41;3146745;23;20046;-88
2023/09/07 03:41:16;;;;;;;7.53;5.53;;;;;;;11.09;100.00;99040.53;3154192;23;20022;-87
2023/09/07 03:42:31;;;;;;;6.28;4.85;;;;;;;11.09;100.00;99045.75;3149016;23;20027;-88
2023/09/07 03:43:47;;;;;;;8.70;5.35;;;;;;;11.09;100.00;99046.63;3153941;23;20018;-88
2023/09/07 03:45:03;;;;;;;12.80;5.93;;;;;;;11.11;100.00;99044.00;3164560;23;20021;-88
2023/09/07 03:46:19;;;;;;;6.18;4.90;;;;;;;11.13;100.00;99043.06;3163536;23;20022;-88
2023/09/07 03:47:35;;;;;;;8.20;5.63;;;;;;;11.13;100.00;99040.44;3162863;23;20022;-88
2023/09/07 03:48:50;;;;;;;7.55;5.50;;;;;;;11.15;100.00;99041.25;3162782;23;20025;-87
2023/09/07 03:50:06;;;;;;;8.65;4.70;;;;;;;11.16;100.00;99040.38;3164175;23;20026;-88
2023/09/07 03:51:22;;;;;;;7.28;5.07;;;;;;;11.22;100.00;99041.16;3163510;23;20459;-88
2023/09/07 03:52:37;;;;;;;7.05;5.20;;;;;;;11.13;100.00;99036.97;3162316;23;20447;-88
2023/09/07 03:53:53;;;;;;;6.13;4.75;;;;;;;11.06;100.00;99041.47;3163172;23;20294;-88
2023/09/07 03:55:09;;;;;;;7.22;4.78;;;;;;;11.15;100.00;99040.41;3163478;23;20028;-88
2023/09/07 03:56:24;;;;;;;6.88;5.47;;;;;;;11.14;100.00;99038.69;3147142;23;20459;-89
2023/09/07 03:57:40;;;;;;;8.57;5.15;;;;;;;11.04;100.00;99039.75;3154974;23;20482;-88
2023/09/07 03:58:55;;;;;;;6.63;4.80;;;;;;;11.11;100.00;99037.00;3165025;23;20032;-90
2023/09/07 04:00:12;;;;;;;6.30;4.78;;;;;;;11.07;100.00;99037.94;3147347;23;20105;-88
2023/09/07 04:01:27;;;;;;;7.53;5.40;;;;;;;11.05;100.00;99038.88;3155229;23;20025;-88
2023/09/07 04:02:43;;;;;;;8.43;4.82;;;;;;;11.05;100.00;99037.13;3163983;23;20026;-88
2023/09/07 04:03:58;;;;;;;6.60;4.82;;;;;;;11.07;100.00;99034.44;3163773;23;20411;-87
2023/09/07 04:05:14;;;;;;;6.97;5.18;;;;;;;11.05;100.00;99046.72;3165461;23;20022;-87
2023/09/07 04:06:29;;;;;;;6.25;5.00;;;;;;;10.87;100.00;99038.34;3147689;23;20018;-88
2023/09/07 04:07:45;;;;;;;7.47;5.00;;;;;;;10.75;100.00;99036.81;3155498;23;20022;-88
2023/09/07 04:09:01;;;;;;;7.28;5.30;;;;;;;10.75;100.00;99044.66;3163857;23;20480;-87
2023/09/07 04:10:17;;;;;;;6.85;5.18;;;;;;;10.76;100.00;99050.78;3164844;23;20026;-88
2023/09/07 04:11:32;;;;;;;7.88;5.60;;;;;;;10.86;100.00;99049.72;3165875;23;20026;-89
2023/09/07 04:12:48;;;;;;;8.35;5.15;;;;;;;10.96;100.00;99046.00;3164557;23;20029;-89
2023/09/07 04:14:03;;;;;;;9.27;5.70;;;;;;;10.92;100.00;99048.75;3149472;23;20026;-88
2023/09/07 04:15:19;;;;;;;10.77;5.70;;;;;;;10.86;100.00;99044.47;3154253;23;20519;-88
2023/09/07 04:16:34;;;;;;;7.55;5.57;;;;;;;10.79;100.00;99048.97;3165255;23;20032;-88
2023/09/07 04:17:50;;;;;;;8.65;5.10;;;;;;;10.69;100.00;99044.81;3164104;23;20398;-87
2023/09/07 04:19:05;;;;;;;7.55;4.90;;;;;;;10.55;100.00;99045.06;3165199;23;20410;-89
2023/09/07 04:20:22;;;;;;;6.97;4.95;;;;;;;10.53;100.00;99046.81;3163430;23;20072;-89
2023/09/07 04:21:38;;;;;;;6.65;4.85;;;;;;;10.56;100.00;99045.03;3164068;23;20056;-89
2023/09/07 04:22:53;;;;;;;7.38;4.88;;;;;;;10.53;100.00;99046.81;3163768;23;20041;-88
2023/09/07 04:24:09;;;;;;;6.90;5.13;;;;;;;10.48;100.00;99046.94;3164189;23;20022;-88
2023/09/07 04:25:25;;;;;;;6.68;4.82;;;;;;;10.57;100.00;99049.38;3165248;23;20026;-88
2023/09/07 04:26:41;;;;;;;6.95;5.15;;;;;;;10.51;100.00;99044.25;3148108;23;20112;-90
2023/09/07 04:27:56;;;;;;;7.75;4.93;;;;;;;10.66;100.00;99047.47;3155661;23;20025;-89
2023/09/07 04:29:12;;;;;;;7.50;5.40;;;;;;;10.73;100.00;99042.09;3164007;23;20538;-88
2023/09/07 04:30:28;;;;;;;7.40;5.22;;;;;;;10.65;100.00;99045.75;3164637;23;20414;-88
2023/09/07 04:31:44;;;;;;;8.70;5.15;;;;;;;10.63;100.00;99047.53;3149516;23;20029;-88
2023/09/07 04:32:59;;;;;;;7.18;4.65;;;;;;;10.55;100.00;99045.06;3154590;23;20018;-89
2023/09/07 04:34:15;;;;;;;6.22;4.72;;;;;;;10.58;100.00;99050.25;3165878;23;20030;-88
2023/09/07 04:35:32;;;;;;;8.10;5.18;;;;;;;10.63;100.00;99042.31;3165635;23;20022;-90
2023/09/07 04:36:48;;;;;;;7.38;5.20;;;;;;;10.64;100.00;99044.03;3153846;23;20045;-89
2023/09/07 04:38:03;;;;;;;7.10;5.00;;;;;;;10.67;100.00;99044.81;3156614;23;20057;-88
2023/09/07 04:39:19;;;;;;;7.10;5.30;;;;;;;10.72;100.00;99040.38;3164781;23;20021;-87
2023/09/07 04:40:35;;;;;;;7.28;4.97;;;;;;;10.77;100.00;99040.28;3165244;23;20052;-88
2023/09/07 04:41:52;;;;;;;6.20;4.78;;;;;;;10.65;100.00;99046.59;3164438;23;20481;-88
2023/09/07 04:43:07;;;;;;;6.95;5.15;;;;;;;10.73;100.00;99046.47;3165549;23;20025;-89
2023/09/07 04:44:23;;;;;;;8.98;5.35;;;;;;;10.69;100.00;99042.19;3163818;23;20018;-89
2023/09/07 04:45:46;;;;;;;7.40;5.15;;;;;;;10.65;100.00;99037.91;3164955;23;20022;-88
2023/09/07 04:47:02;;;;;;;7.88;4.90;;;;;;;10.67;100.00;99039.56;3163484;23;20032;-89
2023/09/07 04:48:17;;;;;;;9.18;5.35;;;;;;;10.70;100.00;99041.28;3162155;23;20049;-90
2023/09/07 04:49:33;;;;;;;8.30;5.80;;;;;;;10.78;100.00;99044.63;3164116;23;20474;-88
2023/09/07 04:50:56;;;;;;;7.70;5.25;;;;;;;10.83;100.00;99045.41;3146443;23;20058;-89
2023/09/07 04:52:12;;;;;;;9.98;5.95;;;;;;;10.87;100.00;99040.97;3154445;23;20110;-90
2023/09/07 04:53:28;;;;;;;7.30;5.35;;;;;;;10.92;100.00;99040.88;3164348;23;20029;-89
2023/09/07 04:54:44;;;;;;;8.15;5.35;;;;;;;10.91;100.00;99044.41;3146808;23;20054;-90
2023/09/07 04:56:01;;;;;;;7.18;5.22;;;;;;;10.92;100.00;99046.13;3154621;23;20053;-88
2023/09/07 04:57:20;;;;;;;9.50;6.15;;;;;;;10.93;100.00;99045.22;3164108;23;20053;-88
2023/09/07 04:58:35;;;;;;;8.35;5.32;;;;;;;10.96;100.00;99038.16;3162900;23;20073;-88
2023/09/07 04:59:51;;;;;;;7.97;5.35;;;;;;;10.94;100.00;99047.81;3164753;23;20030;-88
2023/09/07 05:01:09;;;;;;;8.98;5.63;;;;;;;10.92;100.00;99046.13;3147341;23;20026;-88
2023/09/07 05:02:25;;;;;;;10.23;5.95;;;;;;;10.97;100.00;99037.28;3139685;23;20114;-89
2023/09/07 05:03:41;;;;;;;9.43;6.10;;;;;;;10.98;100.00;99038.13;3154258;23;20026;-88
2023/09/07 05:04:58;;;;;;;7.65;5.20;;;;;;;11.01;100.00;99038.06;3148081;23;20355;-89
2023/09/07 05:06:13;;;;;;;8.38;5.28;;;;;;;11.01;100.00;99044.19;3140573;23;20118;-89
2023/09/07 05:07:29;;;;;;;7.75;5.43;;;;;;;10.97;100.00;99042.53;3153819;23;20025;-89
2023/09/07 05:08:45;;;;;;;8.65;5.57;;;;;;;10.96;100.00;99046.00;3164220;23;20772;-88
2023/09/07 05:10:00;;;;;;;8.13;5.55;;;;;;;11.01;100.00;99045.91;3147360;23;20026;-89
2023/09/07 05:11:16;;;;;;;8.02;5.97;;;;;;;11.06;100.00;99044.09;3139327;23;20050;-89
2023/09/07 05:12:31;;;;;;;10.32;6.25;;;;;;;11.08;100.00;99044.03;3138570;23;20026;-89
2023/09/07 05:13:47;;;;;;;7.90;5.63;;;;;;;11.09;100.00;99046.63;3154605;23;20018;-88
2023/09/07 05:15:06;;;;;;;8.07;5.45;;;;;;;11.09;100.00;99049.25;3164249;23;20018;-87
2023/09/07 05:16:21;;;;;;;8.73;5.38;;;;;;;11.11;100.00;99057.94;3162919;23;20517;-88
2023/09/07 05:17:38;;;;;;;9.93;5.70;;;;;;;11.12;100.00;99051.81;3163661;23;20424;-87
2023/09/07 05:18:53;;;;;;;10.18;6.07;;;;;;;11.06;100.00;99057.19;3162644;23;20113;-87
2023/09/07 05:20:09;;;;;;;10.15;6.53;;;;;;;10.97;100.00;99049.50;3163743;23;20021;-87
2023/09/07 05:21:25;;;;;;;10.90;6.60;;;;;;;11.01;100.00;99054.66;3147126;23;20030;-87
2023/09/07 05:22:41;;;;;;;10.82;7.15;;;;;;;11.06;100.00;99048.44;3153966;23;20387;-88
2023/09/07 05:23:56;;;;;;;10.63;6.75;;;;;;;11.15;100.00;99051.75;3164940;23;20018;-87
2023/09/07 05:25:12;;;;;;;10.50;6.72;;;;;;;11.22;100.00;99051.63;3163704;23;20013;-87
2023/09/07 05:26:28;;;;;;;11.88;6.13;;;;;;;11.35;100.00;99049.59;3164706;23;20399;-86
2023/09/07 05:27:44;;;;;;;12.20;6.65;;;;;;;11.34;100.00;99056.63;3163357;23;20030;-86
2023/09/07 05:29:00;;;;;;;8.75;6.22;;;;;;;11.26;100.00;99048.03;3164063;23;20022;-88
2023/09/07 05:30:15;;;;;;;9.40;6.38;;;;;;;11.23;100.00;99051.59;3165009;23;20350;-89
2023/09/07 05:31:31;;;;;;;9.77;6.82;;;;;;;11.19;100.00;99055.16;3163421;23;20097;-88
2023/09/07 05:32:46;;;;;;;10.38;6.60;;;;;;;11.35;100.00;99052.22;3164887;23;20022;-87
2023/09/07 05:34:02;;;;;;;12.02;6.68;;;;;;;11.39;100.00;99059.16;3163663;23;20021;-88
2023/09/07 05:35:17;;;;;;;10.60;6.82;;;;;;;11.39;100.00;99054.75;3148605;23;20082;-86
2023/09/07 05:36:33;;;;;;;12.05;6.72;;;;;;;11.39;100.00;99054.75;3153379;23;20025;-87
2023/09/07 05:37:49;;;;;;;9.82;6.63;;;;;;;11.46;100.00;99052.88;3164286;23;20049;-88
2023/09/07 05:39:04;;;;;;;11.50;6.78;;;;;;;11.48;100.00;99058.94;3147413;23;20542;-90
2023/09/07 05:40:20;;;;;;;12.73;7.13;;;;;;;11.56;100.00;99061.38;3138163;23;20416;-89
2023/09/07 05:41:36;;;;;;;11.27;6.93;;;;;;;11.66;100.00;99059.41;3153545;23;20538;-91
2023/09/07 05:42:51;;;;;;;10.65;6.88;;;;;;;11.71;100.00;99062.81;3163628;23;20026;-89
2023/09/07 05:44:06;;;;;;;10.23;7.05;;;;;;;11.78;100.00;99066.16;3165077;23;20028;-88
2023/09/07 05:45:22;;;;;;;11.35;7.00;;;;;;;11.77;100.00;99067.91;3147673;23;20515;-88
2023/09/07 05:46:38;;;;;;;12.07;6.78;;;;;;;11.71;100.00;99066.28;3154565;23;20018;-87
2023/09/07 05:47:53;;;;;;;10.85;7.20;;;;;;;11.84;100.00;99064.25;3146942;23;20019;-92
2023/09/07 05:49:09;;;;;;;10.43;6.60;;;;;;;12.01;100.00;99063.00;3124628;23;20539;-94
2023/09/07 05:50:24;;;;;;;9.43;6.65;;;;;;;12.07;100.00;99060.25;3147172;23;20022;-95
2023/09/07 05:51:40;;;;;;;10.43;6.50;;;;;;;12.04;100.00;99059.47;3166852;23;20018;-93
2023/09/07 05:52:56;;;;;;;8.23;5.47;;;;;;;11.95;100.00;99065.78;3151657;23;20078;-94
2023/09/07 05:54:11;;;;;;;9.05;6.25;;;;;;;12.02;100.00;99062.13;3143172;23;20018;-94